Time;durP1;ratioP1;P1;durP2;ratioP2;P2;SDS_P1;SDS_P2;PMS_P1;PMS_P2;Temp;Humidity;BMP_temperature;BMP_pressure;BME280_temperature;BME280_humidity;BME280_pressure;Samples;Min_cycle;Max_cycle;Signal;HPM_P1;HPM_P2
2022/11/11 00:01:18;;;;;;;6.72;5.75;;;;;;;12.03;100.00;97769.94;5103532;28;20071;-45
2022/11/11 00:03:47;;;;;;;7.30;6.00;;;;;;;11.53;100.00;97779.16;5102570;28;20095;-45
2022/11/11 00:06:16;;;;;;;11.10;6.68;;;;;;;11.55;100.00;97767.47;5103764;28;20079;-46
2022/11/11 00:08:47;;;;;;;7.28;5.78;;;;;;;11.37;100.00;97767.09;5098222;28;20101;-43
2022/11/11 00:11:16;;;;;;;7.93;6.20;;;;;;;11.73;100.00;97759.09;5103654;28;20083;-43
2022/11/11 00:13:45;;;;;;;7.47;5.70;;;;;;;11.63;100.00;97762.47;5099153;28;20083;-48
2022/11/11 00:16:14;;;;;;;7.72;5.65;;;;;;;11.54;100.00;97760.53;5105423;28;20087;-44
2022/11/11 00:27:09;;;;;;;9.95;6.80;;;;;;;11.20;100.00;97750.88;5104552;28;20083;-48
2022/11/11 00:29:38;;;;;;;10.55;6.65;;;;;;;11.34;100.00;97751.50;5102624;28;20075;-46
2022/11/11 00:32:23;;;;;;;7.93;6.70;;;;;;;10.84;100.00;97750.88;5101790;28;20079;-47
2022/11/11 00:37:40;;;;;;;15.82;6.82;;;;;;;11.55;100.00;97743.72;5095366;28;20479;-40
2022/11/11 00:40:11;;;;;;;14.27;7.15;;;;;;;11.58;100.00;97751.41;5102504;28;20071;-42
2022/11/11 00:42:39;;;;;;;21.83;6.18;;;;;;;11.38;100.00;97744.16;5097277;28;20079;-43
2022/11/11 00:45:09;;;;;;;10.98;6.45;;;;;;;11.15;100.00;97744.16;5104486;28;20083;-38
2022/11/11 00:53:14;;;;;;;14.70;6.20;;;;;;;11.38;100.00;97731.78;5097635;28;20481;-40
2022/11/11 00:55:42;;;;;;;8.43;5.80;;;;;;;11.00;100.00;97732.09;5100697;28;20079;-44
2022/11/11 00:58:11;;;;;;;8.98;6.50;;;;;;;11.33;100.00;97739.25;5095252;28;20756;-43
2022/11/11 01:00:39;;;;;;;7.55;5.88;;;;;;;11.31;100.00;97735.88;5100023;28;20075;-44
2022/11/11 01:03:07;;;;;;;8.10;6.53;;;;;;;11.03;100.00;97739.78;5103727;28;20083;-44
2022/11/11 01:05:38;;;;;;;17.45;6.05;;;;;;;10.99;100.00;97745.41;5092197;28;20125;-49
2022/11/11 01:08:06;;;;;;;;;;;;;;;10.67;100.00;97756.59;5100656;28;20442;-41
2022/11/11 01:10:47;;;;;;;57.88;7.75;;;;;;;10.11;100.00;97758.84;5096190;28;20422;-40
2022/11/11 01:13:16;;;;;;;;;;;;;;;9.70;100.00;97773.16;5096062;28;20082;-43
2022/11/11 01:15:46;;;;;;;10.43;6.00;;;;;;;9.71;100.00;97777.50;5105668;28;20448;-48
2022/11/11 01:18:17;;;;;;;14.27;6.57;;;;;;;9.39;100.00;97766.53;5101929;28;20087;-46
2022/11/11 01:20:47;;;;;;;8.70;6.75;;;;;;;9.92;100.00;97767.25;5098113;28;20078;-43
2022/11/11 01:23:15;;;;;;;23.92;8.98;;;;;;;10.48;100.00;97766.78;5094934;28;20080;-44
2022/11/11 01:25:45;;;;;;;24.85;8.63;;;;;;;10.76;100.00;97758.50;5098973;28;20083;-43
2022/11/11 01:28:13;;;;;;;15.23;7.75;;;;;;;10.55;100.00;97768.03;5097428;28;20083;-44
2022/11/11 01:30:42;;;;;;;18.20;7.75;;;;;;;10.02;100.00;97783.25;5098253;28;20075;-42
2022/11/11 01:33:11;;;;;;;38.45;8.15;;;;;;;10.05;100.00;97788.28;5095566;28;20079;-43
2022/11/11 01:35:40;;;;;;;22.27;8.15;;;;;;;10.23;100.00;97779.91;5098586;28;20088;-45
2022/11/11 01:38:10;;;;;;;33.05;7.32;;;;;;;10.28;100.00;97771.69;5096546;28;20074;-46
2022/11/11 01:40:42;;;;;;;13.70;7.65;;;;;;;10.51;100.00;97763.94;5100267;28;20494;-42
2022/11/11 01:43:22;;;;;;;14.30;8.27;;;;;;;10.39;100.00;97765.66;5096776;28;20075;-45
2022/11/11 01:45:54;;;;;;;17.95;7.53;;;;;;;10.90;100.00;97762.78;5096939;28;20067;-46
2022/11/11 01:51:19;;;;;;;10.60;7.90;;;;;;;11.12;100.00;97756.75;5096459;28;20083;-45
2022/11/11 01:53:55;;;;;;;11.57;8.38;;;;;;;11.19;100.00;97749.19;5102764;28;20098;-47
2022/11/11 01:56:24;;;;;;;11.73;7.43;;;;;;;11.05;100.00;97753.72;5102858;28;20078;-48
2022/11/11 01:58:55;;;;;;;10.57;7.53;;;;;;;10.90;100.00;97745.13;5102719;28;20612;-48
2022/11/11 02:01:23;;;;;;;8.57;7.22;;;;;;;10.96;100.00;97746.47;5101344;28;20079;-41
2022/11/11 02:06:41;;;;;;;12.82;8.35;;;;;;;10.83;100.00;97743.91;5100621;28;20040;-49
2022/11/11 02:09:12;;;;;;;13.82;8.18;;;;;;;11.07;100.00;97741.22;5098411;28;20426;-42
2022/11/11 02:14:38;;;;;;;10.82;7.80;;;;;;;10.49;100.00;97739.44;5091710;28;20076;-46
2022/11/11 02:17:09;;;;;;;10.90;8.55;;;;;;;10.86;100.00;97737.56;5097050;28;20091;-39
2022/11/11 02:19:40;;;;;;;;;;;;;;;10.75;100.00;97748.09;5096404;28;20789;-45
2022/11/11 02:22:10;;;;;;;10.73;7.65;;;;;;;10.51;100.00;97745.47;5096553;28;20453;-46
2022/11/11 02:24:41;;;;;;;9.05;7.78;;;;;;;10.60;100.00;97745.63;5095972;28;20083;-47
2022/11/11 02:27:13;;;;;;;14.35;7.90;;;;;;;9.78;100.00;97757.66;5092642;28;20106;-43
2022/11/11 02:29:41;;;;;;;11.15;7.88;;;;;;;10.29;100.00;97751.44;5100650;28;20070;-44
2022/11/11 02:32:10;;;;;;;9.93;7.53;;;;;;;9.16;100.00;97765.47;5101224;28;20076;-42
2022/11/11 02:34:38;;;;;;;9.40;7.60;;;;;;;8.83;100.00;97769.41;5097871;28;20084;-45
2022/11/11 02:37:08;;;;;;;10.25;7.78;;;;;;;9.30;100.00;97767.19;5096925;28;20098;-43
2022/11/11 02:39:41;;;;;;;9.47;7.33;;;;;;;9.99;100.00;97765.84;5098547;28;20481;-40
2022/11/11 02:42:30;;;;;;;8.68;7.10;;;;;;;10.20;100.00;97768.75;5090901;28;20521;-43
2022/11/11 02:44:59;;;;;;;9.15;7.28;;;;;;;10.09;100.00;97769.53;5093680;28;20079;-44
2022/11/11 02:47:27;;;;;;;10.52;7.78;;;;;;;10.00;100.00;97767.53;5095412;28;20075;-41
2022/11/11 02:49:56;;;;;;;10.80;7.57;;;;;;;10.29;100.00;97768.13;5098436;28;20075;-43
2022/11/11 02:52:24;;;;;;;14.50;7.40;;;;;;;9.96;100.00;97766.91;5096691;28;20091;-43
2022/11/11 02:54:54;;;;;;;14.02;6.60;;;;;;;9.84;100.00;97777.47;5098096;28;20091;-40
2022/11/11 02:57:23;;;;;;;22.42;7.85;;;;;;;10.14;100.00;97782.38;5096826;28;20083;-45
2022/11/11 02:59:51;;;;;;;15.50;7.60;;;;;;;10.56;100.00;97778.44;5094148;28;20082;-46
2022/11/11 03:02:20;;;;;;;18.83;8.23;;;;;;;10.30;100.00;97785.63;5098668;28;20439;-49
2022/11/11 03:04:48;;;;;;;11.13;8.27;;;;;;;10.14;100.00;97788.47;5095330;28;20666;-42
2022/11/11 03:07:17;;;;;;;12.00;7.75;;;;;;;9.84;100.00;97795.91;5095633;28;20094;-50
2022/11/11 03:09:45;;;;;;;11.00;7.78;;;;;;;9.97;100.00;97800.19;5096838;28;20082;-44
2022/11/11 03:12:15;;;;;;;11.63;7.30;;;;;;;10.45;100.00;97799.50;5097020;28;20413;-48
2022/11/11 03:14:44;;;;;;;13.23;7.53;;;;;;;10.63;100.00;97799.94;5091300;28;20130;-49
2022/11/11 03:22:41;;;;;;;14.00;7.72;;;;;;;10.30;100.00;97808.53;5103358;28;20043;-44
2022/11/11 03:25:39;;;;;;;23.90;8.38;;;;;;;10.30;100.00;97809.34;5103166;28;20083;-45
2022/11/11 03:28:10;;;;;;;19.27;8.52;;;;;;;10.36;100.00;97811.56;5098350;28;20079;-50
2022/11/11 03:30:40;;;;;;;22.80;8.48;;;;;;;10.07;100.00;97808.31;5095183;28;20071;-52
2022/11/11 03:33:09;;;;;;;13.80;8.43;;;;;;;10.54;100.00;97816.47;5096016;28;20529;-43
2022/11/11 03:35:37;;;;;;;27.50;9.13;;;;;;;9.93;100.00;97817.19;5099679;28;20080;-43
2022/11/11 03:38:15;;;;;;;24.58;8.48;;;;;;;10.16;100.00;97814.75;5096555;28;20090;-44
2022/11/11 03:40:44;;;;;;;20.83;8.88;;;;;;;10.43;100.00;97804.88;5101599;28;20079;-44
2022/11/11 03:43:15;;;;;;;20.00;8.82;;;;;;;10.24;100.00;97812.38;5101903;28;20079;-43
2022/11/11 03:45:43;;;;;;;14.07;8.50;;;;;;;9.87;100.00;97814.97;5100216;28;20489;-45
2022/11/11 03:48:13;;;;;;;28.92;9.43;;;;;;;10.33;100.00;97818.84;5093708;28;20071;-42
2022/11/11 03:50:42;;;;;;;23.05;8.65;;;;;;;9.87;100.00;97816.75;5079805;28;20056;-45
2022/11/11 03:53:10;;;;;;;29.27;9.75;;;;;;;9.25;100.00;97828.00;5101737;28;20063;-45
2022/11/11 03:55:39;;;;;;;22.20;9.98;;;;;;;9.56;100.00;97832.03;5101939;28;20075;-42
2022/11/11 03:58:07;;;;;;;22.67;9.88;;;;;;;10.01;100.00;97829.81;5097564;28;20557;-42
2022/11/11 04:00:37;;;;;;;24.50;9.98;;;;;;;10.23;100.00;97816.00;5099461;28;20079;-49
2022/11/11 04:11:31;;;;;;;21.67;8.40;;;;;;;9.85;100.00;97805.50;5098856;28;20088;-45
2022/11/11 04:16:50;;;;;;;23.17;8.93;;;;;;;9.46;100.00;97809.91;5097535;28;20087;-46
2022/11/11 04:22:05;;;;;;;15.93;8.55;;;;;;;9.23;100.00;97806.22;5097357;28;20547;-50
2022/11/11 04:27:20;;;;;;;16.52;7.28;;;;;;;9.35;100.00;97809.81;5097872;28;20082;-41
2022/11/11 04:29:49;;;;;;;19.60;7.90;;;;;;;9.21;100.00;97805.47;5098968;28;20084;-42
2022/11/11 04:35:12;;;;;;;23.08;7.70;;;;;;;9.50;100.00;97801.72;5081926;28;20082;-47
2022/11/11 04:37:46;;;;;;;22.92;8.70;;;;;;;9.57;100.00;97801.31;5098571;28;20079;-40
2022/11/11 04:43:00;;;;;;;24.88;8.07;;;;;;;9.74;100.00;97812.38;5099806;28;20087;-41
2022/11/11 04:45:29;;;;;;;18.90;7.43;;;;;;;10.20;100.00;97809.13;5100998;28;20079;-49
2022/11/11 04:48:01;;;;;;;15.15;7.25;;;;;;;10.40;100.00;97806.91;5098775;28;20086;-43
2022/11/11 04:50:32;;;;;;;15.93;7.30;;;;;;;10.36;100.00;97805.44;5096700;28;20656;-42
2022/11/11 04:53:00;;;;;;;14.32;7.28;;;;;;;10.15;100.00;97807.75;5096745;28;20075;-44
2022/11/11 04:58:16;;;;;;;23.42;7.43;;;;;;;9.79;100.00;97809.41;5098092;28;20537;-52
2022/11/11 05:00:44;;;;;;;21.48;7.60;;;;;;;9.75;100.00;97806.13;5095734;28;20079;-41
2022/11/11 05:03:17;;;;;;;14.57;7.05;;;;;;;10.15;100.00;97813.03;5099571;28;20811;-46
2022/11/11 05:11:21;;;;;;;11.88;7.05;;;;;;;10.47;100.00;97813.41;5100705;28;20063;-41
2022/11/11 05:22:14;;;;;;;15.02;7.65;;;;;;;10.07;100.00;97818.00;5096783;28;20075;-44
2022/11/11 05:27:28;;;;;;;16.20;7.70;;;;;;;9.83;100.00;97820.56;5098293;28;19955;-48
2022/11/11 05:29:58;;;;;;;14.45;7.78;;;;;;;9.82;100.00;97829.44;5102851;28;20086;-51
2022/11/11 05:32:26;;;;;;;20.42;8.52;;;;;;;9.83;100.00;97831.09;5097632;28;20086;-40
2022/11/11 05:34:56;;;;;;;17.00;8.65;;;;;;;10.01;100.00;97835.09;5099813;28;20125;-47
2022/11/11 05:37:24;;;;;;;16.73;8.77;;;;;;;9.50;100.00;97838.59;5097717;28;20458;-41
2022/11/11 05:39:52;;;;;;;12.05;8.15;;;;;;;9.70;100.00;97845.16;5095043;28;20083;-40
2022/11/11 05:42:21;;;;;;;17.02;8.48;;;;;;;9.82;100.00;97846.09;5097668;28;20081;-49
2022/11/11 05:44:49;;;;;;;11.40;7.80;;;;;;;9.75;100.00;97844.81;5095255;28;20079;-45
2022/11/11 05:47:17;;;;;;;18.08;8.77;;;;;;;9.54;100.00;97854.19;5098563;28;20571;-44
2022/11/11 05:49:46;;;;;;;13.07;8.00;;;;;;;9.58;100.00;97851.22;5101464;28;20083;-42
2022/11/11 05:52:17;;;;;;;14.68;8.45;;;;;;;9.92;100.00;97859.47;5100256;28;20075;-40
2022/11/11 05:54:45;;;;;;;;;;;;;;;9.73;100.00;97850.19;5096897;28;20709;-48
2022/11/11 05:57:13;;;;;;;15.13;7.80;;;;;;;10.08;100.00;97864.50;5096830;28;19974;-50
2022/11/11 05:59:42;;;;;;;17.23;8.10;;;;;;;9.62;100.00;97859.78;5097709;28;20079;-43
2022/11/11 06:02:11;;;;;;;12.13;8.02;;;;;;;9.99;100.00;97860.72;5097265;28;20083;-50
2022/11/11 06:04:39;;;;;;;15.70;7.40;;;;;;;9.82;100.00;97861.06;5096814;28;20075;-43
2022/11/11 06:07:08;;;;;;;21.95;8.00;;;;;;;9.52;100.00;97860.38;5092022;28;20087;-46
2022/11/11 06:09:37;;;;;;;8.85;7.30;;;;;;;8.85;100.00;97883.28;5096547;28;20455;-42
2022/11/11 06:12:06;;;;;;;8.70;7.77;;;;;;;8.83;100.00;97885.16;5093631;28;20071;-43
2022/11/11 06:14:34;;;;;;;10.82;7.97;;;;;;;9.21;100.00;97882.66;5101607;28;20070;-44
2022/11/11 06:17:03;;;;;;;9.88;8.38;;;;;;;9.60;100.00;97896.75;5097493;28;20490;-44
2022/11/11 06:19:31;;;;;;;12.98;7.72;;;;;;;9.56;100.00;97903.16;5092860;28;20682;-52
2022/11/11 06:22:02;;;;;;;11.30;8.18;;;;;;;9.85;100.00;97906.47;5098640;28;20075;-45
2022/11/11 06:24:31;;;;;;;14.48;8.55;;;;;;;9.82;100.00;97911.09;5091737;28;20082;-47
2022/11/11 06:26:59;;;;;;;10.10;8.05;;;;;;;9.87;100.00;97915.09;5098262;28;20080;-47
2022/11/11 06:29:28;;;;;;;10.98;7.82;;;;;;;10.15;100.00;97919.34;5101763;28;20468;-43
2022/11/11 06:31:56;;;;;;;10.23;7.90;;;;;;;10.29;100.00;97917.56;5097186;28;20505;-40
2022/11/11 06:34:25;;;;;;;11.40;7.95;;;;;;;10.40;100.00;97913.22;5100109;28;20080;-41
2022/11/11 06:36:53;;;;;;;9.23;6.90;;;;;;;10.33;100.00;97921.69;5098022;28;20470;-41
2022/11/11 06:39:21;;;;;;;8.82;7.15;;;;;;;10.44;100.00;97929.69;5100355;28;20075;-43
2022/11/11 06:41:50;;;;;;;8.95;7.50;;;;;;;10.34;100.00;97929.47;5098074;28;20086;-46
2022/11/11 06:44:20;;;;;;;10.20;7.15;;;;;;;10.18;100.00;97931.44;5096184;28;20082;-43
2022/11/11 06:46:48;;;;;;;8.20;7.17;;;;;;;9.80;100.00;97937.53;5097144;28;20357;-47
2022/11/11 06:49:16;;;;;;;7.90;7.10;;;;;;;9.75;100.00;97943.13;5100626;28;20145;-44
2022/11/11 06:51:44;;;;;;;10.07;6.97;;;;;;;10.17;100.00;97942.94;5092589;28;20082;-50
2022/11/11 06:54:14;;;;;;;8.43;7.10;;;;;;;10.13;100.00;97952.03;5099416;28;20082;-42
2022/11/11 06:56:42;;;;;;;13.13;8.02;;;;;;;9.77;100.00;97956.19;5102932;28;20557;-43
2022/11/11 06:59:10;;;;;;;9.75;7.25;;;;;;;10.36;100.00;97950.47;5104249;28;20100;-40
2022/11/11 07:01:40;;;;;;;9.02;7.53;;;;;;;10.41;100.00;97953.63;5106295;28;20082;-43
2022/11/11 07:04:08;;;;;;;7.90;7.10;;;;;;;10.92;100.00;97954.38;5098999;28;20079;-43
2022/11/11 07:06:37;;;;;;;9.75;7.63;;;;;;;9.83;100.00;97968.97;5100695;28;20071;-48
2022/11/11 07:09:05;;;;;;;9.55;7.00;;;;;;;11.05;100.00;97961.44;5102917;28;20559;-44
2022/11/11 07:11:33;;;;;;;8.07;6.75;;;;;;;11.21;100.00;97958.50;5108377;28;20085;-44
2022/11/11 07:14:02;;;;;;;8.77;7.03;;;;;;;11.35;100.00;97960.97;5105845;28;20088;-42
2022/11/11 07:16:30;;;;;;;9.32;7.35;;;;;;;11.60;100.00;97957.38;5108031;28;20078;-48
2022/11/11 07:19:00;;;;;;;7.32;6.53;;;;;;;11.68;100.00;97962.09;5101129;28;20083;-44
2022/11/11 07:21:28;;;;;;;8.10;6.93;;;;;;;11.48;100.00;97953.00;5105510;28;20095;-45
2022/11/11 07:23:56;;;;;;;7.80;6.97;;;;;;;11.63;100.00;97958.00;5102914;28;20103;-47
2022/11/11 07:26:25;;;;;;;7.90;6.18;;;;;;;11.52;100.00;97957.09;5101419;28;20082;-44
2022/11/11 07:28:53;;;;;;;7.53;5.88;;;;;;;11.10;100.00;97961.94;5107011;28;20075;-47
2022/11/11 07:31:21;;;;;;;10.05;6.85;;;;;;;10.71;100.00;97957.72;5102337;28;20557;-42
2022/11/11 07:33:50;;;;;;;6.90;6.20;;;;;;;10.98;100.00;97957.53;5103471;28;21123;-42
2022/11/11 07:36:19;;;;;;;8.57;7.05;;;;;;;11.72;100.00;97950.34;5106756;28;20086;-42
2022/11/11 07:38:48;;;;;;;10.32;6.75;;;;;;;11.65;100.00;97953.44;5108061;28;20059;-44
2022/11/11 07:41:18;;;;;;;8.30;6.55;;;;;;;10.62;100.00;97949.47;5100927;28;20461;-45
2022/11/11 07:43:46;;;;;;;11.07;7.15;;;;;;;11.14;100.00;97951.03;5104189;28;20075;-42
2022/11/11 07:46:15;;;;;;;6.95;6.25;;;;;;;11.15;100.00;97951.91;5098946;28;20084;-42
2022/11/11 07:48:43;;;;;;;7.72;6.13;;;;;;;10.67;100.00;97952.66;5105640;28;20732;-46
2022/11/11 07:51:12;;;;;;;7.65;6.22;;;;;;;11.55;100.00;97951.59;5107862;28;20094;-46
2022/11/11 07:53:42;;;;;;;8.32;6.30;;;;;;;11.83;100.00;97955.66;5106030;28;20080;-45
2022/11/11 07:56:10;;;;;;;7.93;6.27;;;;;;;11.56;100.00;97951.50;5103388;28;20090;-43
2022/11/11 07:58:38;;;;;;;6.97;6.18;;;;;;;12.06;100.00;97946.84;5102153;28;20086;-47
2022/11/11 08:01:06;;;;;;;7.72;5.78;;;;;;;12.17;100.00;97942.53;5107477;28;20078;-47
2022/11/11 08:03:48;;;;;;;8.13;6.20;;;;;;;12.26;100.00;97952.44;5104127;28;20079;-40
2022/11/11 08:06:20;;;;;;;8.55;5.97;;;;;;;11.99;100.00;97936.88;5101698;28;20086;-46
2022/11/11 08:08:50;;;;;;;12.10;6.20;;;;;;;12.51;100.00;97935.47;5095976;28;20560;-47
2022/11/11 08:13:39;;;;;;;7.60;6.87;;;;;;;11.77;100.00;97941.13;5099259;28;20075;-42
2022/11/11 08:14:07;;;;;;;7.82;6.20;;;;;;;11.65;100.00;97931.44;5100224;28;20140;-48
2022/11/11 08:16:35;;;;;;;8.82;6.47;;;;;;;11.30;100.00;97934.06;5102205;28;20690;-44
2022/11/11 08:19:03;;;;;;;9.05;6.50;;;;;;;11.91;100.00;97929.53;5098255;28;20082;-49
2022/11/11 08:21:32;;;;;;;8.70;6.40;;;;;;;11.86;100.00;97934.31;5101579;28;20090;-46
2022/11/11 08:24:02;;;;;;;7.72;6.30;;;;;;;11.63;100.00;97934.22;5101118;28;20090;-42
2022/11/11 08:26:52;;;;;;;8.75;6.68;;;;;;;12.37;100.00;97925.97;5098922;28;20076;-46
2022/11/11 08:29:20;;;;;;;8.80;6.30;;;;;;;11.85;100.00;97925.53;5103373;28;20133;-41
2022/11/11 08:31:49;;;;;;;8.23;6.38;;;;;;;11.67;100.00;97918.97;5099754;28;20098;-42
2022/11/11 08:34:17;;;;;;;8.75;6.43;;;;;;;12.25;100.00;97917.19;5103293;28;20087;-42
2022/11/11 08:36:45;;;;;;;9.57;6.35;;;;;;;12.05;100.00;97910.81;5099103;28;20087;-40
2022/11/11 08:39:15;;;;;;;7.80;6.25;;;;;;;12.33;100.00;97919.25;5104194;28;20454;-49
2022/11/11 08:41:44;;;;;;;7.55;6.07;;;;;;;12.62;100.00;97916.09;5094761;28;20091;-43
2022/11/11 08:44:13;;;;;;;7.80;6.32;;;;;;;12.11;100.00;97914.75;5100088;28;20111;-41
2022/11/11 08:46:41;;;;;;;8.82;6.40;;;;;;;12.31;100.00;97910.56;5097584;28;20072;-44
2022/11/11 08:49:11;;;;;;;6.65;5.93;;;;;;;12.40;100.00;97909.88;5098202;28;20079;-43
2022/11/11 08:51:40;;;;;;;7.45;5.57;;;;;;;12.85;100.00;97915.13;5096868;28;20067;-44
2022/11/11 08:54:12;;;;;;;6.95;5.82;;;;;;;12.82;100.00;97907.41;5098592;28;20075;-42
2022/11/11 08:56:42;;;;;;;6.82;6.13;;;;;;;13.65;100.00;97904.16;5099395;28;20080;-48
2022/11/11 08:59:10;;;;;;;7.18;5.50;;;;;;;14.05;100.00;97911.41;5099628;28;20079;-41
2022/11/11 09:01:39;;;;;;;6.15;5.55;;;;;;;14.79;100.00;97908.53;5101763;28;20066;-43
2022/11/11 09:04:07;;;;;;;6.22;5.20;;;;;;;14.10;100.00;97918.97;5101705;28;20114;-43
2022/11/11 09:06:56;;;;;;;6.75;5.57;;;;;;;14.00;100.00;97925.06;5097143;28;20153;-46
2022/11/11 09:09:24;;;;;;;7.63;4.88;;;;;;;15.26;100.00;97927.38;5101805;28;20442;-45
2022/11/11 09:11:54;;;;;;;6.15;5.18;;;;;;;15.79;100.00;97927.00;5100055;28;20091;-44
2022/11/11 09:14:22;;;;;;;5.33;4.70;;;;;;;16.20;100.00;97927.63;5095730;28;20414;-46
2022/11/11 09:16:51;;;;;;;6.28;4.78;;;;;;;16.67;100.00;97934.78;5099309;28;21055;-44
2022/11/11 09:19:19;;;;;;;6.80;4.60;;;;;;;16.97;100.00;97923.88;5102103;28;20526;-45
2022/11/11 09:21:48;;;;;;;5.35;4.20;;;;;;;17.08;100.00;97933.50;5100141;28;20730;-43
2022/11/11 09:24:16;;;;;;;4.70;3.83;;;;;;;17.20;100.00;97920.78;5101601;28;20078;-41
2022/11/11 09:26:47;;;;;;;6.00;4.30;;;;;;;17.23;98.37;97924.00;5100398;28;20506;-47
2022/11/11 09:29:17;;;;;;;4.78;3.70;;;;;;;17.09;100.00;97922.66;5103305;28;20072;-42
2022/11/11 09:31:46;;;;;;;4.57;4.07;;;;;;;15.57;100.00;97935.25;5098544;28;20469;-46
2022/11/11 09:34:15;;;;;;;4.55;3.78;;;;;;;15.38;100.00;97942.25;5103142;28;20075;-44
2022/11/11 09:36:43;;;;;;;5.57;3.95;;;;;;;15.39;100.00;97940.44;5103881;28;20075;-43
2022/11/11 09:39:11;;;;;;;4.70;3.50;;;;;;;14.98;100.00;97938.81;5099385;28;20465;-45
2022/11/11 09:41:49;;;;;;;5.18;3.83;;;;;;;16.48;100.00;97941.00;5097959;28;20080;-42
2022/11/11 09:44:34;;;;;;;4.40;3.67;;;;;;;16.21;100.00;97944.44;5097305;28;20457;-47
2022/11/11 09:47:06;;;;;;;7.87;4.10;;;;;;;16.84;100.00;97940.22;5081175;28;20098;-47
2022/11/11 09:49:45;;;;;;;4.22;3.70;;;;;;;17.26;100.00;97939.69;5099278;28;20568;-44
2022/11/11 09:52:17;;;;;;;5.15;3.60;;;;;;;17.75;94.10;97934.81;5100055;28;20472;-51
2022/11/11 09:54:50;;;;;;;5.78;3.60;;;;;;;18.17;86.45;97934.22;5097616;28;20098;-44
2022/11/11 09:57:23;;;;;;;5.43;4.10;;;;;;;18.21;84.16;97930.22;5102646;28;20545;-50
2022/11/11 09:59:55;;;;;;;4.93;3.65;;;;;;;18.52;78.88;97939.59;5098867;28;20082;-46
2022/11/11 10:02:31;;;;;;;5.75;3.80;;;;;;;18.39;80.29;97937.34;5102822;28;20083;-46
2022/11/11 10:05:05;;;;;;;4.47;3.65;;;;;;;18.97;76.13;97926.81;5097108;28;20079;-45
2022/11/11 10:07:36;;;;;;;5.10;3.72;;;;;;;18.97;78.73;97924.13;5095529;28;20107;-43
2022/11/11 10:10:11;;;;;;;4.78;3.72;;;;;;;19.53;70.28;97924.44;5094462;28;20088;-45
2022/11/11 10:12:44;;;;;;;4.40;3.30;;;;;;;19.36;73.85;97918.22;5095302;28;20076;-43
2022/11/11 10:15:20;;;;;;;5.13;3.05;;;;;;;19.05;73.13;97917.13;5097681;28;20086;-45
2022/11/11 10:17:58;;;;;;;5.03;3.38;;;;;;;19.24;72.96;97922.22;5100338;28;20084;-46
2022/11/11 10:20:31;;;;;;;4.40;3.35;;;;;;;19.31;73.98;97928.59;5100002;28;20079;-43
2022/11/11 10:23:03;;;;;;;3.97;3.55;;;;;;;18.65;84.91;97926.63;5097302;28;20153;-48
2022/11/11 10:25:32;;;;;;;5.10;3.50;;;;;;;18.32;88.30;97930.97;5097766;28;20071;-43
2022/11/11 10:28:02;;;;;;;4.28;3.10;;;;;;;19.45;76.64;97925.28;5098173;28;20552;-42
2022/11/11 10:30:32;;;;;;;6.22;3.58;;;;;;;19.00;77.77;97933.69;5096633;28;20550;-43
2022/11/11 10:33:02;;;;;;;5.05;3.55;;;;;;;19.36;76.98;97930.75;5100728;28;20084;-45
2022/11/11 10:35:32;;;;;;;5.00;3.35;;;;;;;19.31;77.53;97935.78;5096990;28;20078;-42
2022/11/11 10:38:15;;;;;;;5.60;3.63;;;;;;;19.83;72.54;97931.03;5099180;28;20082;-41
2022/11/11 10:40:48;;;;;;;5.85;4.90;;;;;;;19.55;77.94;97935.81;5100341;28;20083;-44
2022/11/11 10:43:22;;;;;;;5.28;4.03;;;;;;;19.53;76.97;97937.00;5097780;28;20078;-45
2022/11/11 10:46:00;;;;;;;5.00;3.72;;;;;;;19.22;77.84;97934.91;5097942;28;20076;-46
2022/11/11 10:48:36;;;;;;;4.72;4.13;;;;;;;19.39;80.95;97941.97;5099269;28;20075;-42
2022/11/11 10:51:11;;;;;;;5.00;4.25;;;;;;;19.86;72.74;97929.88;5096566;28;20067;-42
2022/11/11 10:53:44;;;;;;;5.45;3.55;;;;;;;19.80;73.35;97934.03;5096887;28;20083;-46
2022/11/11 10:56:18;;;;;;;5.32;3.75;;;;;;;20.03;73.95;97933.38;5100744;28;20109;-45
2022/11/11 10:58:51;;;;;;;5.47;3.90;;;;;;;19.24;75.44;97937.44;5095852;28;20080;-48
2022/11/11 11:01:27;;;;;;;6.10;3.97;;;;;;;19.77;74.07;97928.19;5095490;28;20085;-41
2022/11/11 11:03:59;;;;;;;6.20;4.00;;;;;;;19.48;73.13;97928.59;5096712;28;20103;-40
2022/11/11 11:06:28;;;;;;;5.05;3.72;;;;;;;20.01;71.39;97906.75;5094961;28;20091;-41
2022/11/11 11:09:02;;;;;;;3.92;3.33;;;;;;;19.18;72.61;97922.88;5096428;28;20080;-47
2022/11/11 11:11:36;;;;;;;6.25;3.80;;;;;;;19.80;70.21;97920.66;5096776;28;20082;-44
2022/11/11 11:14:15;;;;;;;4.95;3.70;;;;;;;20.42;66.39;97920.09;5101423;28;20067;-44
2022/11/11 11:16:49;;;;;;;7.30;4.45;;;;;;;20.16;67.45;97920.28;5094640;28;20072;-48
2022/11/11 11:19:19;;;;;;;7.32;6.05;;;;;;;20.23;67.70;97923.97;5094132;28;20079;-45
2022/11/11 11:21:53;;;;;;;7.80;6.43;;;;;;;20.13;72.04;97928.66;5100762;28;20079;-48
2022/11/11 11:24:24;;;;;;;8.18;6.45;;;;;;;20.48;67.10;97924.78;5101736;28;20086;-41
2022/11/11 11:26:54;;;;;;;8.77;6.13;;;;;;;20.42;67.57;97917.41;5098889;28;20076;-43
2022/11/11 11:29:27;;;;;;;7.18;5.78;;;;;;;20.28;71.75;97907.41;5099994;28;20086;-45
2022/11/11 11:32:11;;;;;;;7.40;6.07;;;;;;;20.19;67.99;97905.72;5092978;28;20174;-41
2022/11/11 11:34:48;;;;;;;9.25;6.60;;;;;;;20.51;68.23;97903.03;5098826;28;20102;-44
2022/11/11 11:37:18;;;;;;;8.80;6.95;;;;;;;20.44;67.66;97899.31;5095185;28;20075;-42
2022/11/11 11:39:46;;;;;;;17.17;10.77;;;;;;;20.36;70.54;97902.84;5096387;28;20080;-46
2022/11/11 11:42:29;;;;;;;8.60;7.00;;;;;;;20.37;69.52;97901.00;5103896;28;20168;-45
2022/11/11 11:44:57;;;;;;;39.38;21.75;;;;;;;20.62;67.50;97913.38;5099695;28;20094;-45
2022/11/11 11:47:39;;;;;;;11.90;8.20;;;;;;;20.35;71.11;97909.22;5102626;28;20074;-45
2022/11/11 11:50:21;;;;;;;15.93;10.48;;;;;;;20.48;70.52;97919.41;5103267;28;20135;-44
2022/11/11 11:52:59;;;;;;;83.10;46.53;;;;;;;20.04;75.85;97916.28;5102807;28;20451;-46
2022/11/11 11:55:31;;;;;;;35.42;20.67;;;;;;;20.12;76.93;97914.44;5100382;28;20083;-48
2022/11/11 11:58:15;;;;;;;72.38;41.08;;;;;;;19.78;79.46;97917.28;5102573;28;20078;-51
2022/11/11 12:00:48;;;;;;;75.65;43.83;;;;;;;19.56;83.53;97907.22;5101679;28;20094;-48
2022/11/11 12:03:33;;;;;;;19.58;13.20;;;;;;;20.04;78.99;97893.03;5101847;28;20090;-47
2022/11/11 12:06:04;;;;;;;12.85;8.13;;;;;;;20.47;72.63;97888.25;5103455;28;20089;-42
2022/11/11 12:08:45;;;;;;;17.30;11.55;;;;;;;20.60;73.81;97893.09;5104521;28;20086;-45
2022/11/11 12:11:18;;;;;;;22.67;15.45;;;;;;;20.23;78.88;97899.84;5100348;28;20079;-43
2022/11/11 12:14:02;;;;;;;9.38;7.10;;;;;;;19.99;78.76;97892.69;5104993;28;20078;-51
2022/11/11 12:16:34;;;;;;;21.30;13.88;;;;;;;20.38;78.72;97900.00;5100901;28;20540;-42
2022/11/11 12:19:26;;;;;;;17.02;9.70;;;;;;;19.82;85.47;97897.22;5103400;28;20467;-40
2022/11/11 12:21:59;;;;;;;10.90;7.45;;;;;;;20.05;80.31;97892.00;5099939;28;20075;-43
2022/11/11 12:24:49;;;;;;;6.97;5.53;;;;;;;19.81;82.83;97898.22;5100909;28;20075;-41
2022/11/11 12:27:24;;;;;;;7.07;4.63;;;;;;;19.35;90.77;97899.66;5101899;28;20081;-47
2022/11/11 12:30:02;;;;;;;9.95;4.72;;;;;;;19.49;89.96;97887.47;5101660;28;20086;-41
2022/11/11 12:32:41;;;;;;;7.40;5.32;;;;;;;19.96;88.24;97882.34;5105259;28;20083;-47
2022/11/11 12:35:36;;;;;;;6.70;4.72;;;;;;;19.46;89.92;97883.28;5098113;28;20083;-44
2022/11/11 12:38:20;;;;;;;6.93;4.95;;;;;;;20.00;87.29;97888.19;5101212;28;20071;-45
2022/11/11 12:40:57;;;;;;;6.20;4.80;;;;;;;19.31;92.19;97896.50;5099626;28;20083;-44
2022/11/11 12:43:31;;;;;;;7.07;4.60;;;;;;;19.55;93.87;97893.00;5104749;28;20078;-43
2022/11/11 12:46:06;;;;;;;5.85;4.82;;;;;;;19.35;96.38;97888.97;5100613;28;20094;-44
2022/11/11 12:48:54;;;;;;;6.55;4.93;;;;;;;19.73;92.06;97889.38;5097071;28;20080;-42
2022/11/11 12:51:34;;;;;;;5.80;4.80;;;;;;;19.44;99.91;97894.16;5085100;28;20068;-47
2022/11/11 12:54:08;;;;;;;7.53;5.13;;;;;;;19.67;93.01;97889.00;5100940;28;20084;-45
2022/11/11 12:56:42;;;;;;;10.40;5.35;;;;;;;19.78;91.44;97885.16;5098644;28;20075;-44
2022/11/11 12:59:20;;;;;;;7.82;4.63;;;;;;;19.54;94.38;97885.97;5101358;28;20694;-41